Terminal Aerodrome Forecast
Issued by NWS North Platte, NE

Home | Current Version | Previous Version | Graphics & Text | Print | Product List | Glossary On
Versions: 1 2 3 4 5 6 7 8 9 10 11 12
142
FTUS43 KLBF 072320
TAFVTN
TAF
KVTN 072320Z 0800/0824 31025G40KT P6SM FEW070 SCT250
     FM080200 31022G32KT P6SM SCT250=

USA.gov is the U.S. government's official web portal to all federal, state and local government web resources and services.